Freeman, Virginia
Current Conditions -  °F | °C
As of 11:35 AM on Tuesday 27 Jan 2015 (Local Time) from KLVL Reporting Station
Overcast Overcast  
Wind Chill: 26°   Ceiling: 800
Heat Index: 32°   Visibility: 2.5mi
Dew Point: 30°   Wind: 7mph
Humidity: 92%   Direction: 340°NNW
Pressure: 29.82"   Gusts: NA
Location:  36.78°N, 77.71°W
Report Text: KLVL 271635Z AUTO 34006KT 2 1/2SM BKN008 OVC013 00/M01 A2982 RMK AO1 T00001012
Loading
Personal Weather Stations






























Interactive Weather Map New forecast layout! Learn more

10-Day Weather Forecast

Advertisements
Track Severe Weather on mobile